sensor_id;sensor_type;location;lat;lon;timestamp;pressure;altitude;pressure_sealevel;temperature;humidity
11041;BME280;5573;49.592;8.662;2023-06-14T00:02:03;99407.84;;;16.47;47.34
11041;BME280;5573;49.592;8.662;2023-06-14T00:04:34;99400.59;;;16.48;46.28
11041;BME280;5573;49.592;8.662;2023-06-14T00:07:03;99371.69;;;16.28;45.97
11041;BME280;5573;49.592;8.662;2023-06-14T00:09:36;99411.06;;;16.49;46.92
11041;BME280;5573;49.592;8.662;2023-06-14T00:12:04;99395.69;;;16.40;47.77
11041;BME280;5573;49.592;8.662;2023-06-14T00:14:33;99410.53;;;16.47;47.51
11041;BME280;5573;49.592;8.662;2023-06-14T00:17:01;99405.22;;;16.58;46.68
11041;BME280;5573;49.592;8.662;2023-06-14T00:19:30;99415.50;;;16.66;45.94
11041;BME280;5573;49.592;8.662;2023-06-14T00:21:59;99409.69;;;16.84;45.04
11041;BME280;5573;49.592;8.662;2023-06-14T00:24:27;99405.66;;;16.86;45.35
11041;BME280;5573;49.592;8.662;2023-06-14T00:26:57;99407.31;;;16.92;46.01
11041;BME280;5573;49.592;8.662;2023-06-14T00:29:25;99399.78;;;16.89;45.22
11041;BME280;5573;49.592;8.662;2023-06-14T00:31:52;99407.03;;;16.89;46.25
11041;BME280;5573;49.592;8.662;2023-06-14T00:34:21;99397.59;;;16.86;45.45
11041;BME280;5573;49.592;8.662;2023-06-14T00:36:48;99397.06;;;16.84;45.85
11041;BME280;5573;49.592;8.662;2023-06-14T00:39:17;99395.19;;;16.90;45.09
11041;BME280;5573;49.592;8.662;2023-06-14T00:41:44;99402.47;;;16.94;44.83
11041;BME280;5573;49.592;8.662;2023-06-14T00:44:16;99396.88;;;17.06;44.74
11041;BME280;5573;49.592;8.662;2023-06-14T00:46:45;99402.22;;;17.01;44.88
11041;BME280;5573;49.592;8.662;2023-06-14T00:49:14;99395.31;;;17.20;43.82
11041;BME280;5573;49.592;8.662;2023-06-14T00:51:42;99403.41;;;17.25;44.34
11041;BME280;5573;49.592;8.662;2023-06-14T00:54:10;99390.03;;;17.56;42.59
11041;BME280;5573;49.592;8.662;2023-06-14T00:56:39;99391.09;;;17.44;43.12
11041;BME280;5573;49.592;8.662;2023-06-14T00:59:08;99399.69;;;17.36;43.12
11041;BME280;5573;49.592;8.662;2023-06-14T01:01:39;99385.91;;;17.28;43.89
11041;BME280;5573;49.592;8.662;2023-06-14T01:04:07;99399.50;;;17.58;42.46
11041;BME280;5573;49.592;8.662;2023-06-14T01:06:41;99383.06;;;17.65;42.27
11041;BME280;5573;49.592;8.662;2023-06-14T01:09:18;99397.34;;;17.65;43.20
11041;BME280;5573;49.592;8.662;2023-06-14T01:11:59;99392.25;;;17.74;42.08
11041;BME280;5573;49.592;8.662;2023-06-14T01:14:31;99406.22;;;17.61;42.95
11041;BME280;5573;49.592;8.662;2023-06-14T01:17:02;99394.59;;;17.50;42.64
11041;BME280;5573;49.592;8.662;2023-06-14T01:19:32;99405.16;;;17.62;42.29
11041;BME280;5573;49.592;8.662;2023-06-14T01:22:01;99394.31;;;17.46;42.76
11041;BME280;5573;49.592;8.662;2023-06-14T01:24:31;99395.44;;;17.61;41.61
11041;BME280;5573;49.592;8.662;2023-06-14T01:27:00;99402.75;;;17.70;41.38
11041;BME280;5573;49.592;8.662;2023-06-14T01:29:30;99405.97;;;17.62;42.12
11041;BME280;5573;49.592;8.662;2023-06-14T01:31:59;99408.91;;;17.61;42.15
11041;BME280;5573;49.592;8.662;2023-06-14T01:34:30;99411.56;;;17.51;42.22
11041;BME280;5573;49.592;8.662;2023-06-14T01:37:00;99402.97;;;17.49;42.03
11041;BME280;5573;49.592;8.662;2023-06-14T01:39:32;99403.50;;;17.56;42.11
11041;BME280;5573;49.592;8.662;2023-06-14T01:42:01;99403.50;;;17.56;41.77
11041;BME280;5573;49.592;8.662;2023-06-14T01:44:30;99401.88;;;17.44;42.70
11041;BME280;5573;49.592;8.662;2023-06-14T01:47:00;99407.53;;;17.53;42.67
11041;BME280;5573;49.592;8.662;2023-06-14T01:49:28;99400.25;;;17.43;42.50
11041;BME280;5573;49.592;8.662;2023-06-14T01:51:56;99414.22;;;17.30;43.43
11041;BME280;5573;49.592;8.662;2023-06-14T01:54:24;99423.59;;;17.28;43.45
11041;BME280;5573;49.592;8.662;2023-06-14T01:56:54;99413.63;;;17.18;43.79
11041;BME280;5573;49.592;8.662;2023-06-14T01:59:21;99410.63;;;17.05;44.17
11041;BME280;5573;49.592;8.662;2023-06-14T02:01:49;99414.16;;;17.15;43.55
11041;BME280;5573;49.592;8.662;2023-06-14T02:04:18;99408.47;;;17.07;44.14
11041;BME280;5573;49.592;8.662;2023-06-14T02:06:46;99414.38;;;17.04;43.67
11041;BME280;5573;49.592;8.662;2023-06-14T02:09:14;99409.25;;;17.02;43.97
11041;BME280;5573;49.592;8.662;2023-06-14T02:11:47;99417.63;;;17.11;43.93
11041;BME280;5573;49.592;8.662;2023-06-14T02:14:16;99416.50;;;17.02;43.83
11041;BME280;5573;49.592;8.662;2023-06-14T02:16:44;99422.16;;;17.05;43.65
11041;BME280;5573;49.592;8.662;2023-06-14T02:19:16;99419.50;;;17.10;43.46
11041;BME280;5573;49.592;8.662;2023-06-14T02:21:44;99395.72;;;16.87;44.26
11041;BME280;5573;49.592;8.662;2023-06-14T02:24:12;99419.75;;;17.09;43.32
11041;BME280;5573;49.592;8.662;2023-06-14T02:26:41;99413.06;;;17.11;43.80
11041;BME280;5573;49.592;8.662;2023-06-14T02:29:14;99411.41;;;17.05;43.83
11041;BME280;5573;49.592;8.662;2023-06-14T02:31:44;99410.88;;;17.03;44.27
11041;BME280;5573;49.592;8.662;2023-06-14T02:34:13;99409.72;;;16.94;44.85
11041;BME280;5573;49.592;8.662;2023-06-14T02:36:45;99413.16;;;16.79;45.15
11041;BME280;5573;49.592;8.662;2023-06-14T02:39:14;99414.97;;;16.69;45.00
11041;BME280;5573;49.592;8.662;2023-06-14T02:41:43;99413.06;;;16.59;45.70
11041;BME280;5573;49.592;8.662;2023-06-14T02:44:12;99412.81;;;16.66;45.54
11041;BME280;5573;49.592;8.662;2023-06-14T02:46:40;99409.22;;;16.55;45.91
11041;BME280;5573;49.592;8.662;2023-06-14T02:49:12;99422.50;;;16.67;45.84
11041;BME280;5573;49.592;8.662;2023-06-14T02:51:39;99414.03;;;16.48;46.11
11041;BME280;5573;49.592;8.662;2023-06-14T02:54:08;99417.72;;;16.37;46.49
11041;BME280;5573;49.592;8.662;2023-06-14T02:56:37;99412.69;;;16.50;45.64
11041;BME280;5573;49.592;8.662;2023-06-14T02:59:05;99413.97;;;16.43;46.28
11041;BME280;5573;49.592;8.662;2023-06-14T03:01:33;99423.63;;;16.39;46.21
11041;BME280;5573;49.592;8.662;2023-06-14T03:04:06;99423.03;;;16.32;46.52
11041;BME280;5573;49.592;8.662;2023-06-14T03:06:37;99423.25;;;16.25;46.68
11041;BME280;5573;49.592;8.662;2023-06-14T03:09:07;99423.72;;;16.17;47.75
11041;BME280;5573;49.592;8.662;2023-06-14T03:11:38;99423.59;;;16.02;48.46
11041;BME280;5573;49.592;8.662;2023-06-14T03:14:06;99424.03;;;15.89;49.24
11041;BME280;5573;49.592;8.662;2023-06-14T03:16:36;99428.22;;;15.80;48.71
11041;BME280;5573;49.592;8.662;2023-06-14T03:19:05;99434.63;;;15.74;49.96
11041;BME280;5573;49.592;8.662;2023-06-14T03:21:34;99432.31;;;15.61;50.13
11041;BME280;5573;49.592;8.662;2023-06-14T03:24:05;99432.78;;;15.79;48.56
11041;BME280;5573;49.592;8.662;2023-06-14T03:26:34;99438.38;;;15.73;48.48
11041;BME280;5573;49.592;8.662;2023-06-14T03:29:04;99439.50;;;15.77;48.62
11041;BME280;5573;49.592;8.662;2023-06-14T03:31:34;99433.91;;;15.83;48.47
11041;BME280;5573;49.592;8.662;2023-06-14T03:34:04;99442.53;;;15.85;48.49
11041;BME280;5573;49.592;8.662;2023-06-14T03:36:33;99444.84;;;15.77;49.00
11041;BME280;5573;49.592;8.662;2023-06-14T03:39:01;99449.72;;;15.80;48.84
11041;BME280;5573;49.592;8.662;2023-06-14T03:41:31;99449.41;;;16.03;47.61
11041;BME280;5573;49.592;8.662;2023-06-14T03:43:59;99447.03;;;16.07;47.71
11041;BME280;5573;49.592;8.662;2023-06-14T03:46:27;99456.44;;;16.09;47.55
11041;BME280;5573;49.592;8.662;2023-06-14T03:48:54;99464.03;;;16.17;47.13
11041;BME280;5573;49.592;8.662;2023-06-14T03:51:23;99462.72;;;16.20;47.36
11041;BME280;5573;49.592;8.662;2023-06-14T03:53:51;99471.28;;;16.17;47.66
11041;BME280;5573;49.592;8.662;2023-06-14T03:56:25;99461.94;;;16.24;47.02
11041;BME280;5573;49.592;8.662;2023-06-14T03:58:54;99455.69;;;16.14;48.30
11041;BME280;5573;49.592;8.662;2023-06-14T04:01:25;99470.78;;;16.20;47.65
11041;BME280;5573;49.592;8.662;2023-06-14T04:03:58;99467.31;;;16.24;48.13
11041;BME280;5573;49.592;8.662;2023-06-14T04:06:26;99464.63;;;16.24;47.45
11041;BME280;5573;49.592;8.662;2023-06-14T04:08:59;99475.22;;;16.36;47.53
11041;BME280;5573;49.592;8.662;2023-06-14T04:11:30;99483.81;;;16.33;47.83
11041;BME280;5573;49.592;8.662;2023-06-14T04:14:01;99470.88;;;16.30;48.39
11041;BME280;5573;49.592;8.662;2023-06-14T04:16:29;99477.84;;;16.31;47.93
11041;BME280;5573;49.592;8.662;2023-06-14T04:18:59;99467.03;;;16.21;47.83
11041;BME280;5573;49.592;8.662;2023-06-14T04:21:27;99484.56;;;16.28;48.46
11041;BME280;5573;49.592;8.662;2023-06-14T04:23:58;99489.41;;;16.26;48.81
11041;BME280;5573;49.592;8.662;2023-06-14T04:26:29;99490.47;;;16.30;48.77
11041;BME280;5573;49.592;8.662;2023-06-14T04:29:02;99492.34;;;16.25;48.78
11041;BME280;5573;49.592;8.662;2023-06-14T04:31:33;99501.22;;;16.25;50.15
11041;BME280;5573;49.592;8.662;2023-06-14T04:34:07;99497.84;;;16.40;48.35
11041;BME280;5573;49.592;8.662;2023-06-14T04:36:35;99502.94;;;16.41;48.78
11041;BME280;5573;49.592;8.662;2023-06-14T04:39:05;99508.94;;;16.48;48.00
11041;BME280;5573;49.592;8.662;2023-06-14T04:41:33;99506.75;;;16.45;48.60
11041;BME280;5573;49.592;8.662;2023-06-14T04:44:03;99514.28;;;16.43;48.14
11041;BME280;5573;49.592;8.662;2023-06-14T04:46:37;99513.50;;;16.48;48.04
11041;BME280;5573;49.592;8.662;2023-06-14T04:49:14;99512.78;;;16.58;47.68
11041;BME280;5573;49.592;8.662;2023-06-14T04:51:42;99520.00;;;16.52;48.22
11041;BME280;5573;49.592;8.662;2023-06-14T04:54:11;99520.88;;;16.58;47.56
11041;BME280;5573;49.592;8.662;2023-06-14T04:56:41;99524.72;;;16.67;47.36
11041;BME280;5573;49.592;8.662;2023-06-14T04:59:12;99527.41;;;16.67;47.69
11041;BME280;5573;49.592;8.662;2023-06-14T05:01:41;99528.00;;;16.74;47.28
11041;BME280;5573;49.592;8.662;2023-06-14T05:04:14;99528.75;;;16.69;48.00
11041;BME280;5573;49.592;8.662;2023-06-14T05:06:43;99521.22;;;16.71;47.68
11041;BME280;5573;49.592;8.662;2023-06-14T05:09:12;99521.22;;;16.66;48.43
11041;BME280;5573;49.592;8.662;2023-06-14T05:11:40;99527.44;;;16.72;47.31
11041;BME280;5573;49.592;8.662;2023-06-14T05:14:09;99528.88;;;16.84;47.38
11041;BME280;5573;49.592;8.662;2023-06-14T05:16:38;99516.38;;;16.68;47.71
11041;BME280;5573;49.592;8.662;2023-06-14T05:19:06;99528.00;;;16.79;48.27
11041;BME280;5573;49.592;8.662;2023-06-14T05:21:34;99513.50;;;16.75;47.45
11041;BME280;5573;49.592;8.662;2023-06-14T05:24:09;99529.72;;;16.90;47.29
11041;BME280;5573;49.592;8.662;2023-06-14T05:26:38;99519.16;;;16.78;47.25
11041;BME280;5573;49.592;8.662;2023-06-14T05:29:06;99538.63;;;16.95;47.38
11041;BME280;5573;49.592;8.662;2023-06-14T05:31:34;99536.28;;;17.04;47.61
11041;BME280;5573;49.592;8.662;2023-06-14T05:34:03;99547.88;;;17.05;47.10
11041;BME280;5573;49.592;8.662;2023-06-14T05:36:32;99541.44;;;17.11;47.52
11041;BME280;5573;49.592;8.662;2023-06-14T05:38:59;99534.19;;;17.16;46.96
11041;BME280;5573;49.592;8.662;2023-06-14T05:41:29;99545.53;;;17.23;46.77
11041;BME280;5573;49.592;8.662;2023-06-14T05:43:57;99541.25;;;17.27;46.93
11041;BME280;5573;49.592;8.662;2023-06-14T05:46:26;99543.44;;;17.35;46.88
11041;BME280;5573;49.592;8.662;2023-06-14T05:48:55;99547.56;;;17.48;46.23
11041;BME280;5573;49.592;8.662;2023-06-14T05:51:24;99537.47;;;17.70;45.38
11041;BME280;5573;49.592;8.662;2023-06-14T05:53:53;99546.88;;;17.73;44.99
11041;BME280;5573;49.592;8.662;2023-06-14T05:56:21;99546.66;;;17.84;45.60
11041;BME280;5573;49.592;8.662;2023-06-14T05:58:49;99531.84;;;17.82;45.72
11041;BME280;5573;49.592;8.662;2023-06-14T06:01:17;99554.53;;;17.96;45.42
11041;BME280;5573;49.592;8.662;2023-06-14T06:03:45;99559.13;;;18.06;45.51
11041;BME280;5573;49.592;8.662;2023-06-14T06:06:13;99572.31;;;18.02;46.19
11041;BME280;5573;49.592;8.662;2023-06-14T06:08:43;99566.66;;;18.04;44.79
11041;BME280;5573;49.592;8.662;2023-06-14T06:11:10;99573.44;;;18.11;45.13
11041;BME280;5573;49.592;8.662;2023-06-14T06:13:38;99568.16;;;18.67;44.77
11041;BME280;5573;49.592;8.662;2023-06-14T06:16:07;99571.38;;;18.74;43.92
11041;BME280;5573;49.592;8.662;2023-06-14T06:18:35;99568.69;;;18.94;44.10
11041;BME280;5573;49.592;8.662;2023-06-14T06:21:04;99564.38;;;18.93;43.49
11041;BME280;5573;49.592;8.662;2023-06-14T06:23:32;99575.16;;;18.73;44.44
11041;BME280;5573;49.592;8.662;2023-06-14T06:26:01;99584.31;;;18.62;45.29
11041;BME280;5573;49.592;8.662;2023-06-14T06:28:28;99586.44;;;18.45;44.55
11041;BME280;5573;49.592;8.662;2023-06-14T06:30:56;99576.44;;;18.40;44.54
11041;BME280;5573;49.592;8.662;2023-06-14T06:33:24;99576.22;;;18.52;44.75
11041;BME280;5573;49.592;8.662;2023-06-14T06:35:52;99580.28;;;18.69;44.80
11041;BME280;5573;49.592;8.662;2023-06-14T06:38:20;99582.19;;;18.89;43.75
11041;BME280;5573;49.592;8.662;2023-06-14T06:40:48;99586.22;;;19.07;44.46
11041;BME280;5573;49.592;8.662;2023-06-14T06:43:17;99585.41;;;19.06;43.78
11041;BME280;5573;49.592;8.662;2023-06-14T06:45:47;99594.59;;;18.95;44.54
11041;BME280;5573;49.592;8.662;2023-06-14T06:48:15;99595.41;;;19.16;43.98
11041;BME280;5573;49.592;8.662;2023-06-14T06:50:43;99597.25;;;19.30;43.26
11041;BME280;5573;49.592;8.662;2023-06-14T06:53:11;99595.09;;;19.32;44.06
11041;BME280;5573;49.592;8.662;2023-06-14T06:55:46;99605.59;;;19.59;43.57
11041;BME280;5573;49.592;8.662;2023-06-14T06:58:14;99598.25;;;19.75;42.67
11041;BME280;5573;49.592;8.662;2023-06-14T07:00:43;99608.06;;;20.20;41.77
11041;BME280;5573;49.592;8.662;2023-06-14T07:03:11;99613.41;;;20.74;40.39
11041;BME280;5573;49.592;8.662;2023-06-14T07:05:39;99619.66;;;21.66;37.95
11041;BME280;5573;49.592;8.662;2023-06-14T07:08:07;99624.34;;;22.08;37.54
11041;BME280;5573;49.592;8.662;2023-06-14T07:10:35;99635.31;;;22.21;35.74
11041;BME280;5573;49.592;8.662;2023-06-14T07:13:03;99636.63;;;22.00;37.79
11041;BME280;5573;49.592;8.662;2023-06-14T07:15:35;99635.16;;;22.32;37.07
11041;BME280;5573;49.592;8.662;2023-06-14T07:18:04;99631.88;;;22.91;35.53
11041;BME280;5573;49.592;8.662;2023-06-14T07:20:34;99638.59;;;22.93;35.26
11041;BME280;5573;49.592;8.662;2023-06-14T07:23:01;99627.41;;;22.81;35.17
11041;BME280;5573;49.592;8.662;2023-06-14T07:25:29;99624.38;;;22.45;35.86
11041;BME280;5573;49.592;8.662;2023-06-14T07:27:57;99646.41;;;23.00;35.57
11041;BME280;5573;49.592;8.662;2023-06-14T07:30:25;99638.84;;;23.29;34.21
11041;BME280;5573;49.592;8.662;2023-06-14T07:32:53;99621.91;;;23.18;34.01
11041;BME280;5573;49.592;8.662;2023-06-14T07:35:23;99631.53;;;23.43;35.82
11041;BME280;5573;49.592;8.662;2023-06-14T07:37:50;99641.63;;;23.97;33.94
11041;BME280;5573;49.592;8.662;2023-06-14T07:40:19;99646.28;;;24.74;32.84
11041;BME280;5573;49.592;8.662;2023-06-14T07:42:47;99648.94;;;24.65;32.48
11041;BME280;5573;49.592;8.662;2023-06-14T07:45:16;99645.81;;;24.58;33.01
11041;BME280;5573;49.592;8.662;2023-06-14T07:47:44;99651.72;;;25.09;31.53
11041;BME280;5573;49.592;8.662;2023-06-14T07:50:12;99627.19;;;24.51;32.65
11041;BME280;5573;49.592;8.662;2023-06-14T07:52:42;99657.53;;;24.58;32.69
11041;BME280;5573;49.592;8.662;2023-06-14T07:55:09;99658.16;;;24.42;32.41
11041;BME280;5573;49.592;8.662;2023-06-14T07:57:37;99654.66;;;24.00;33.21
11041;BME280;5573;49.592;8.662;2023-06-14T08:00:06;99632.38;;;24.26;33.06
11041;BME280;5573;49.592;8.662;2023-06-14T08:02:40;99657.13;;;24.16;33.09
11041;BME280;5573;49.592;8.662;2023-06-14T08:05:09;99659.53;;;24.53;32.86
11041;BME280;5573;49.592;8.662;2023-06-14T08:07:38;99659.69;;;24.34;32.88
11041;BME280;5573;49.592;8.662;2023-06-14T08:10:09;99659.28;;;24.27;32.74
11041;BME280;5573;49.592;8.662;2023-06-14T08:12:37;99649.81;;;23.84;34.20
11041;BME280;5573;49.592;8.662;2023-06-14T08:15:05;99671.38;;;23.66;35.16
11041;BME280;5573;49.592;8.662;2023-06-14T08:17:42;99660.66;;;23.43;35.41
11041;BME280;5573;49.592;8.662;2023-06-14T08:20:10;99660.56;;;23.61;35.83
11041;BME280;5573;49.592;8.662;2023-06-14T08:22:38;99668.50;;;22.93;36.33
11041;BME280;5573;49.592;8.662;2023-06-14T08:25:10;99671.38;;;22.83;36.73
11041;BME280;5573;49.592;8.662;2023-06-14T08:27:39;99668.06;;;22.67;36.24
11041;BME280;5573;49.592;8.662;2023-06-14T08:30:08;99667.66;;;22.37;37.37
11041;BME280;5573;49.592;8.662;2023-06-14T08:32:36;99669.22;;;22.43;36.15
11041;BME280;5573;49.592;8.662;2023-06-14T08:35:05;99667.00;;;22.45;36.31
11041;BME280;5573;49.592;8.662;2023-06-14T08:37:38;99664.81;;;22.65;37.34
11041;BME280;5573;49.592;8.662;2023-06-14T08:40:08;99673.69;;;23.08;36.46
11041;BME280;5573;49.592;8.662;2023-06-14T08:42:42;99666.97;;;23.19;35.34
11041;BME280;5573;49.592;8.662;2023-06-14T08:45:10;99668.50;;;22.93;35.00
11041;BME280;5573;49.592;8.662;2023-06-14T08:47:38;99673.19;;;23.06;35.29
11041;BME280;5573;49.592;8.662;2023-06-14T08:50:08;99669.50;;;22.97;35.59
11041;BME280;5573;49.592;8.662;2023-06-14T08:52:56;99675.72;;;23.16;35.67
11041;BME280;5573;49.592;8.662;2023-06-14T08:55:28;99679.06;;;23.13;35.23
11041;BME280;5573;49.592;8.662;2023-06-14T08:58:03;99668.94;;;23.51;35.28
11041;BME280;5573;49.592;8.662;2023-06-14T09:00:32;99681.81;;;23.27;34.39
11041;BME280;5573;49.592;8.662;2023-06-14T09:03:00;99669.44;;;23.35;32.45
11041;BME280;5573;49.592;8.662;2023-06-14T09:05:29;99677.19;;;23.28;32.62
11041;BME280;5573;49.592;8.662;2023-06-14T09:07:57;99676.09;;;23.61;35.88
11041;BME280;5573;49.592;8.662;2023-06-14T09:10:32;99689.00;;;23.37;33.06
11041;BME280;5573;49.592;8.662;2023-06-14T09:13:02;99680.22;;;23.58;32.70
11041;BME280;5573;49.592;8.662;2023-06-14T09:15:31;99671.53;;;23.56;32.66
11041;BME280;5573;49.592;8.662;2023-06-14T09:18:01;99685.25;;;23.65;31.61
11041;BME280;5573;49.592;8.662;2023-06-14T09:20:30;99685.91;;;24.03;31.99
11041;BME280;5573;49.592;8.662;2023-06-14T09:22:58;99685.47;;;23.82;32.95
11041;BME280;5573;49.592;8.662;2023-06-14T09:25:27;99687.22;;;23.92;32.76
11041;BME280;5573;49.592;8.662;2023-06-14T09:28:10;99696.06;;;23.70;32.02
11041;BME280;5573;49.592;8.662;2023-06-14T09:30:38;99687.31;;;24.00;31.69
11041;BME280;5573;49.592;8.662;2023-06-14T09:33:06;99691.16;;;24.40;31.92
11041;BME280;5573;49.592;8.662;2023-06-14T09:35:35;99688.63;;;24.17;31.19
11041;BME280;5573;49.592;8.662;2023-06-14T09:38:03;99691.34;;;24.03;30.99
11041;BME280;5573;49.592;8.662;2023-06-14T09:40:34;99695.38;;;23.78;30.88
11041;BME280;5573;49.592;8.662;2023-06-14T09:43:05;99694.69;;;24.00;31.95
11041;BME280;5573;49.592;8.662;2023-06-14T09:45:36;99695.53;;;23.68;31.91
11041;BME280;5573;49.592;8.662;2023-06-14T09:48:06;99701.47;;;24.30;31.45
11041;BME280;5573;49.592;8.662;2023-06-14T09:50:34;99693.47;;;24.20;28.25
11041;BME280;5573;49.592;8.662;2023-06-14T09:53:05;99691.25;;;24.08;29.17
11041;BME280;5573;49.592;8.662;2023-06-14T09:55:36;99694.56;;;24.05;31.50
11041;BME280;5573;49.592;8.662;2023-06-14T09:58:05;99699.00;;;24.55;30.34
11041;BME280;5573;49.592;8.662;2023-06-14T10:00:36;99691.34;;;24.03;30.01
11041;BME280;5573;49.592;8.662;2023-06-14T10:03:12;99618.50;;;24.13;29.26
11041;BME280;5573;49.592;8.662;2023-06-14T10:05:43;99691.97;;;24.41;29.99
11041;BME280;5573;49.592;8.662;2023-06-14T10:08:14;99704.75;;;24.54;29.50
11041;BME280;5573;49.592;8.662;2023-06-14T10:10:43;99692.78;;;24.28;28.20
11041;BME280;5573;49.592;8.662;2023-06-14T10:13:11;99690.44;;;24.35;33.57
11041;BME280;5573;49.592;8.662;2023-06-14T10:15:51;99703.44;;;24.51;31.06
11041;BME280;5573;49.592;8.662;2023-06-14T10:18:29;99686.50;;;24.27;30.42
11041;BME280;5573;49.592;8.662;2023-06-14T10:21:04;99698.13;;;24.33;30.25
11041;BME280;5573;49.592;8.662;2023-06-14T10:23:37;99690.03;;;24.28;29.73
11041;BME280;5573;49.592;8.662;2023-06-14T10:26:08;99684.91;;;24.89;29.78
11041;BME280;5573;49.592;8.662;2023-06-14T10:28:37;99692.47;;;24.29;30.40
11041;BME280;5573;49.592;8.662;2023-06-14T10:31:08;99703.94;;;24.67;31.71
11041;BME280;5573;49.592;8.662;2023-06-14T10:33:39;99674.31;;;24.88;31.48
11041;BME280;5573;49.592;8.662;2023-06-14T10:36:24;99701.78;;;25.58;28.88
11041;BME280;5573;49.592;8.662;2023-06-14T10:38:58;99675.03;;;25.16;29.60
11041;BME280;5573;49.592;8.662;2023-06-14T10:41:27;99692.59;;;25.54;28.92
11041;BME280;5573;49.592;8.662;2023-06-14T10:44:38;99702.75;;;24.95;30.58
11041;BME280;5573;49.592;8.662;2023-06-14T10:47:10;99698.34;;;24.86;30.58
11041;BME280;5573;49.592;8.662;2023-06-14T10:49:41;99697.19;;;25.00;30.30
11041;BME280;5573;49.592;8.662;2023-06-14T10:52:11;99687.06;;;24.65;30.17
11041;BME280;5573;49.592;8.662;2023-06-14T10:55:06;99691.91;;;23.73;32.18
11041;BME280;5573;49.592;8.662;2023-06-14T10:57:36;99693.88;;;23.86;32.34
11041;BME280;5573;49.592;8.662;2023-06-14T11:00:19;99685.00;;;24.35;31.42
11041;BME280;5573;49.592;8.662;2023-06-14T11:06:13;99681.78;;;25.18;28.84
11041;BME280;5573;49.592;8.662;2023-06-14T11:09:19;99683.13;;;25.51;31.21
11041;BME280;5573;49.592;8.662;2023-06-14T11:11:48;99679.28;;;24.72;29.57
11041;BME280;5573;49.592;8.662;2023-06-14T11:14:16;99681.47;;;24.48;30.17
11041;BME280;5573;49.592;8.662;2023-06-14T11:16:48;99686.34;;;25.09;29.87
11041;BME280;5573;49.592;8.662;2023-06-14T11:19:16;99682.50;;;25.10;30.25
11041;BME280;5573;49.592;8.662;2023-06-14T11:21:48;99688.25;;;25.75;28.54
11041;BME280;5573;49.592;8.662;2023-06-14T11:24:16;99686.44;;;25.71;28.27
11041;BME280;5573;49.592;8.662;2023-06-14T11:26:46;99685.44;;;25.97;29.27
11041;BME280;5573;49.592;8.662;2023-06-14T11:29:15;99690.22;;;25.52;28.82
11041;BME280;5573;49.592;8.662;2023-06-14T11:31:44;99690.88;;;25.14;30.17
11041;BME280;5573;49.592;8.662;2023-06-14T11:34:12;99684.06;;;25.25;29.57
11041;BME280;5573;49.592;8.662;2023-06-14T11:36:41;99688.50;;;25.65;29.16
11041;BME280;5573;49.592;8.662;2023-06-14T11:39:11;99680.84;;;25.23;30.02
11041;BME280;5573;49.592;8.662;2023-06-14T11:41:41;99677.28;;;25.44;30.84
11041;BME280;5573;49.592;8.662;2023-06-14T11:44:10;99681.84;;;25.27;30.93
11041;BME280;5573;49.592;8.662;2023-06-14T11:46:38;99680.66;;;25.41;29.56
11041;BME280;5573;49.592;8.662;2023-06-14T11:49:07;99640.94;;;25.04;29.14
11041;BME280;5573;49.592;8.662;2023-06-14T11:51:36;99677.75;;;25.69;30.20
11041;BME280;5573;49.592;8.662;2023-06-14T11:54:06;99678.72;;;25.64;28.71
11041;BME280;5573;49.592;8.662;2023-06-14T11:56:36;99687.81;;;26.30;28.34
11041;BME280;5573;49.592;8.662;2023-06-14T11:59:05;99675.34;;;25.98;28.41
11041;BME280;5573;49.592;8.662;2023-06-14T12:01:35;99675.47;;;25.62;27.50
11041;BME280;5573;49.592;8.662;2023-06-14T12:04:04;99680.03;;;26.15;27.74
11041;BME280;5573;49.592;8.662;2023-06-14T12:06:32;99681.78;;;26.50;27.19
11041;BME280;5573;49.592;8.662;2023-06-14T12:09:07;99685.34;;;26.85;25.54
11041;BME280;5573;49.592;8.662;2023-06-14T12:11:41;99685.19;;;27.07;25.60
11041;BME280;5573;49.592;8.662;2023-06-14T12:14:09;99689.84;;;27.07;26.49
11041;BME280;5573;49.592;8.662;2023-06-14T12:16:38;99688.53;;;26.61;26.72
11041;BME280;5573;49.592;8.662;2023-06-14T12:19:12;99684.19;;;26.60;26.69
11041;BME280;5573;49.592;8.662;2023-06-14T12:21:40;99685.34;;;26.85;26.66
11041;BME280;5573;49.592;8.662;2023-06-14T12:24:09;99680.22;;;26.83;26.67
11041;BME280;5573;49.592;8.662;2023-06-14T12:26:41;99678.75;;;27.03;26.75
11041;BME280;5573;49.592;8.662;2023-06-14T12:29:09;99684.38;;;27.07;26.56
11041;BME280;5573;49.592;8.662;2023-06-14T12:31:39;99674.03;;;26.35;26.38
11041;BME280;5573;49.592;8.662;2023-06-14T12:34:07;99686.91;;;25.42;27.98
11041;BME280;5573;49.592;8.662;2023-06-14T12:36:34;99675.25;;;25.05;29.42
11041;BME280;5573;49.592;8.662;2023-06-14T12:39:07;99674.75;;;25.26;28.72
11041;BME280;5573;49.592;8.662;2023-06-14T12:41:35;99679.47;;;25.56;29.03
11041;BME280;5573;49.592;8.662;2023-06-14T12:44:05;99677.91;;;26.03;27.98
11041;BME280;5573;49.592;8.662;2023-06-14T12:46:33;99685.31;;;26.59;27.06
11041;BME280;5573;49.592;8.662;2023-06-14T12:49:01;99681.63;;;26.81;27.36
11041;BME280;5573;49.592;8.662;2023-06-14T12:51:29;99685.78;;;26.04;27.29
11041;BME280;5573;49.592;8.662;2023-06-14T12:53:57;99687.59;;;25.03;28.34
11041;BME280;5573;49.592;8.662;2023-06-14T12:56:25;99672.97;;;24.49;28.70
11041;BME280;5573;49.592;8.662;2023-06-14T12:58:53;99688.50;;;24.98;29.70
11041;BME280;5573;49.592;8.662;2023-06-14T13:01:23;99680.88;;;25.09;28.78
11041;BME280;5573;49.592;8.662;2023-06-14T13:03:50;99681.03;;;25.04;28.51
11041;BME280;5573;49.592;8.662;2023-06-14T13:06:20;99679.94;;;24.55;30.81
11041;BME280;5573;49.592;8.662;2023-06-14T13:08:49;99690.56;;;24.79;30.06
11041;BME280;5573;49.592;8.662;2023-06-14T13:11:16;99684.44;;;24.74;29.68
11041;BME280;5573;49.592;8.662;2023-06-14T13:13:44;99681.13;;;24.63;30.84
11041;BME280;5573;49.592;8.662;2023-06-14T13:16:13;99680.28;;;24.27;29.78
11041;BME280;5573;49.592;8.662;2023-06-14T13:18:42;99683.13;;;24.71;30.86
11041;BME280;5573;49.592;8.662;2023-06-14T13:21:10;99626.53;;;25.35;29.51
11041;BME280;5573;49.592;8.662;2023-06-14T13:23:38;99681.84;;;26.19;28.02
11041;BME280;5573;49.592;8.662;2023-06-14T13:26:06;99678.34;;;26.27;26.19
11041;BME280;5573;49.592;8.662;2023-06-14T13:28:33;99675.94;;;26.43;27.12